createdAt,value
2023-01-04T00:00:41.856Z,101121.75
2023-01-04T00:04:58.260Z,101142.50
2023-01-04T00:09:14.551Z,101135.97
2023-01-04T00:13:34.819Z,101131.25
2023-01-04T00:17:51.103Z,101135.03
2023-01-04T00:22:07.419Z,101122.25
2023-01-04T00:26:33.143Z,101134.09
2023-01-04T00:30:49.382Z,101126.22
2023-01-04T00:35:32.821Z,101132.56
2023-01-04T00:39:49.266Z,101128.50
2023-01-04T00:44:07.341Z,101132.19
2023-01-04T00:48:23.507Z,101141.78
2023-01-04T00:52:39.800Z,101136.62
2023-01-04T00:56:56.053Z,101133.84
2023-01-04T01:01:12.618Z,101135.22
2023-01-04T01:05:29.145Z,101134.56
2023-01-04T01:09:45.415Z,101124.16
2023-01-04T01:14:01.613Z,101133.84
2023-01-04T01:18:17.899Z,101133.16
2023-01-04T01:22:36.499Z,101144.12
2023-01-04T01:26:52.799Z,101138.78
2023-01-04T01:31:23.262Z,101139.03
2023-01-04T01:35:46.930Z,101144.41
2023-01-04T01:40:03.190Z,101149.16
2023-01-04T01:44:47.039Z,101149.78
2023-01-04T01:49:28.436Z,101146.16
2023-01-04T01:53:46.970Z,101146.00
2023-01-04T01:58:05.544Z,101160.69
2023-01-04T02:02:22.404Z,101144.53
2023-01-04T02:06:41.712Z,101138.41
2023-01-04T02:10:58.122Z,101138.72
2023-01-04T02:15:14.439Z,101142.63
2023-01-04T02:20:04.752Z,101140.25
2023-01-04T02:24:42.543Z,101143.44
2023-01-04T02:29:29.306Z,101142.84
2023-01-04T02:33:54.342Z,101141.31
2023-01-04T02:38:23.368Z,101133.75
2023-01-04T02:43:33.357Z,101142.09
2023-01-04T02:48:07.960Z,101131.81
2023-01-04T02:52:24.420Z,101139.41
2023-01-04T02:57:13.101Z,101127.19
2023-01-04T03:02:09.702Z,101130.16
2023-01-04T03:06:59.126Z,101131.63
2023-01-04T07:25:52.648Z,101179.59
2023-01-04T07:30:09.441Z,101188.81
2023-01-04T07:34:26.589Z,101183.03
2023-01-04T07:38:43.808Z,101190.84
2023-01-04T07:43:00.294Z,101197.31
2023-01-04T07:47:16.457Z,101194.31
2023-01-04T07:51:33.532Z,101187.62
2023-01-04T07:55:54.686Z,101204.03
2023-01-04T08:00:11.728Z,101198.41
2023-01-04T08:04:34.391Z,101192.06
2023-01-04T08:08:51.385Z,101194.41
2023-01-04T08:13:07.635Z,101190.94
2023-01-04T08:17:23.844Z,101197.84
2023-01-04T08:21:40.108Z,101203.63
2023-01-04T08:25:56.311Z,101200.31
2023-01-04T08:30:12.644Z,101202.44
2023-01-04T08:34:30.060Z,101203.00
2023-01-04T08:39:05.740Z,101197.66
2023-01-04T08:43:22.334Z,101198.22
2023-01-04T08:47:38.645Z,101198.72
2023-01-04T08:51:54.946Z,101206.66
2023-01-04T08:56:11.484Z,101201.19
2023-01-04T09:00:27.920Z,101203.50
2023-01-04T09:04:44.736Z,101204.34
2023-01-04T09:09:00.901Z,101199.09
2023-01-04T09:13:17.048Z,101200.19
2023-01-04T09:17:33.187Z,101200.66
2023-01-04T09:21:49.623Z,101192.56
2023-01-04T09:26:09.635Z,101190.53
2023-01-04T09:30:26.624Z,101181.56
2023-01-04T09:34:43.041Z,101177.38
2023-01-04T09:39:01.268Z,101178.25
2023-01-04T09:43:22.304Z,101173.06
2023-01-04T09:47:46.912Z,101159.16
2023-01-04T09:52:38.473Z,101161.03
2023-01-04T09:56:58.514Z,101154.16
2023-01-04T10:01:17.291Z,101143.53
2023-01-04T10:05:34.580Z,101147.84
2023-01-04T10:09:50.906Z,101143.94
2023-01-04T10:14:23.002Z,101129.13
2023-01-04T10:19:51.516Z,101134.75
2023-01-04T10:23:59.343Z,101119.97
2023-01-04T10:28:43.509Z,101119.03
2023-01-04T10:33:11.876Z,101111.94
2023-01-04T10:37:37.542Z,101117.28
2023-01-04T10:42:00.854Z,101103.28
2023-01-04T10:46:27.230Z,101089.22
2023-01-04T10:50:56.767Z,101080.28
2023-01-04T10:55:38.555Z,101080.38
2023-01-04T11:00:17.912Z,101070.31
2023-01-04T11:04:45.178Z,101080.31
2023-01-04T11:09:13.455Z,101070.28
2023-01-04T11:13:29.760Z,101066.66
2023-01-04T11:17:46.302Z,101066.44
2023-01-04T11:22:11.047Z,101044.19
2023-01-04T11:26:35.191Z,101035.06
2023-01-04T11:31:14.076Z,101037.19
2023-01-04T11:35:43.389Z,101029.81
2023-01-04T11:40:24.189Z,101019.72
2023-01-04T11:44:42.210Z,101024.81
2023-01-04T11:48:58.785Z,101017.59
2023-01-04T11:53:41.237Z,101018.38
2023-01-04T11:58:15.007Z,100999.19
2023-01-04T12:07:20.313Z,100994.97
2023-01-04T12:11:40.295Z,100981.97
2023-01-04T12:16:18.470Z,100968.19
2023-01-04T12:20:36.233Z,100972.91
2023-01-04T12:25:00.022Z,100965.00
2023-01-04T12:29:23.249Z,100957.12
2023-01-04T12:33:40.397Z,100933.97
2023-01-04T12:37:56.606Z,100924.59
2023-01-04T12:42:17.833Z,100924.56
2023-01-04T12:47:01.049Z,100917.28
2023-01-04T12:51:33.936Z,100920.78
2023-01-04T12:55:55.178Z,100924.03
2023-01-04T13:00:15.249Z,100929.91
2023-01-04T13:04:41.640Z,100911.66
2023-01-04T13:08:58.158Z,100905.06
2023-01-04T13:13:42.170Z,100890.13
2023-01-04T13:17:58.402Z,100893.81
2023-01-04T13:22:29.475Z,100891.75
2023-01-04T13:26:48.788Z,100882.66
2023-01-04T13:31:05.055Z,100868.81
2023-01-04T13:35:21.308Z,100860.25
2023-01-04T13:39:45.184Z,100866.28
2023-01-04T13:44:17.461Z,100853.00
2023-01-04T13:48:37.611Z,100821.62
2023-01-04T13:53:05.524Z,100810.59
2023-01-04T13:57:22.784Z,100793.66
2023-01-04T14:01:47.186Z,100770.28
2023-01-04T14:06:15.076Z,100763.41
2023-01-04T14:10:31.560Z,100765.09
2023-01-04T14:14:58.905Z,100748.09
2023-01-04T14:19:41.679Z,100760.91
2023-01-04T14:23:57.964Z,100761.03
2023-01-04T14:28:24.862Z,100769.37
2023-01-04T14:32:43.290Z,100780.56
2023-01-04T14:37:04.634Z,100773.06
2023-01-04T14:41:25.681Z,100778.56
2023-01-04T14:45:41.854Z,100779.66
2023-01-04T14:49:58.055Z,100780.81
2023-01-04T14:54:20.469Z,100773.41
2023-01-04T14:58:40.777Z,100764.56
2023-01-04T15:02:57.292Z,100769.22
2023-01-04T15:07:36.068Z,100777.75
2023-01-04T15:11:52.458Z,100772.22
2023-01-04T15:16:13.173Z,100765.53
2023-01-04T15:20:29.427Z,100764.19
2023-01-04T15:24:45.844Z,100755.44
2023-01-04T15:29:02.500Z,100761.12
2023-01-04T15:33:18.699Z,100758.38
2023-01-04T15:37:34.962Z,100758.41
2023-01-04T15:42:09.752Z,100759.75
2023-01-04T15:46:26.063Z,100749.25
2023-01-04T15:50:42.573Z,100743.22
2023-01-04T15:54:58.763Z,100732.94
2023-01-04T15:59:14.891Z,100734.34
2023-01-04T16:03:31.143Z,100736.38
2023-01-04T16:07:48.644Z,100729.19
2023-01-04T16:12:26.660Z,100726.16
2023-01-04T16:16:42.858Z,100725.78
2023-01-04T16:21:02.008Z,100709.56
2023-01-04T16:25:18.368Z,100706.50
2023-01-04T16:29:34.944Z,100697.75
2023-01-04T16:33:54.634Z,100695.59
2023-01-04T16:38:10.745Z,100678.41
2023-01-04T16:42:27.072Z,100674.19
2023-01-04T16:46:44.408Z,100678.09
2023-01-04T16:51:01.759Z,100661.41
2023-01-04T16:55:23.849Z,100658.06
2023-01-04T16:59:40.398Z,100668.63
2023-01-04T17:03:58.894Z,100657.78
2023-01-04T17:08:15.660Z,100654.91
2023-01-04T17:12:48.799Z,100649.44
2023-01-04T17:17:05.306Z,100649.78
2023-01-04T17:21:33.750Z,100636.94
2023-01-04T17:25:51.055Z,100636.50
2023-01-04T17:30:10.038Z,100615.22
2023-01-04T17:34:26.520Z,100609.66
2023-01-04T17:38:42.824Z,100603.63
2023-01-04T17:42:59.967Z,100611.66
2023-01-04T17:47:16.200Z,100603.41
2023-01-04T17:51:33.156Z,100604.09
2023-01-04T17:55:49.381Z,100603.41
2023-01-04T18:00:06.909Z,100611.56
2023-01-04T18:04:23.192Z,100619.25
2023-01-04T18:08:39.749Z,100611.72
2023-01-04T18:12:56.111Z,100593.84
2023-01-04T18:17:12.654Z,100570.09
2023-01-04T18:21:31.256Z,100569.28
2023-01-04T18:25:47.627Z,100560.56
2023-01-04T18:30:04.120Z,100548.00
2023-01-04T18:34:20.714Z,100567.84
2023-01-04T18:38:36.960Z,100562.78
2023-01-04T18:42:53.147Z,100552.44
2023-01-04T18:47:09.266Z,100546.13
2023-01-04T18:51:27.118Z,100536.94
2023-01-04T18:55:43.325Z,100524.91
2023-01-04T19:00:00.230Z,100513.53
2023-01-04T19:04:17.742Z,100504.03
2023-01-04T19:08:34.249Z,100497.59
2023-01-04T19:12:50.513Z,100494.87
2023-01-04T19:17:06.827Z,100494.34
2023-01-04T19:21:23.126Z,100492.88
2023-01-04T19:25:40.366Z,100479.53
2023-01-04T19:29:56.534Z,100471.31
2023-01-04T19:34:12.699Z,100458.94
2023-01-04T19:38:28.868Z,100460.44
2023-01-04T19:42:45.021Z,100452.28
2023-01-04T19:47:01.219Z,100466.19
2023-01-04T19:51:18.084Z,100457.63
2023-01-04T19:55:34.513Z,100453.78
2023-01-04T19:59:51.172Z,100442.31
2023-01-04T20:04:07.331Z,100448.22
2023-01-04T20:08:23.609Z,100444.47
2023-01-04T20:12:39.839Z,100432.88
2023-01-04T20:16:56.088Z,100417.28
2023-01-04T20:21:14.252Z,100409.50
2023-01-04T20:25:30.474Z,100400.19
2023-01-04T20:29:46.740Z,100393.91
2023-01-04T20:34:02.961Z,100390.41
2023-01-04T20:38:19.204Z,100381.19
2023-01-04T20:42:54.117Z,100371.84
2023-01-04T20:47:10.363Z,100368.31
2023-01-04T20:51:28.290Z,100363.03
2023-01-04T20:55:44.548Z,100349.97
2023-01-04T21:00:00.772Z,100328.53
2023-01-04T21:04:17.950Z,100317.47
2023-01-04T21:08:35.799Z,100313.53
2023-01-04T21:12:51.950Z,100298.75
2023-01-04T21:17:08.106Z,100295.00
2023-01-04T21:21:24.323Z,100274.31
2023-01-04T21:25:41.420Z,100274.59
2023-01-04T21:29:57.681Z,100274.91
2023-01-04T21:34:18.259Z,100255.47
2023-01-04T21:38:37.125Z,100249.16
2023-01-04T21:42:53.470Z,100241.22
2023-01-04T21:47:09.629Z,100257.69
2023-01-04T21:51:25.999Z,100248.28
2023-01-04T21:55:42.200Z,100237.31
2023-01-04T21:59:58.405Z,100245.38
2023-01-04T22:04:14.619Z,100233.09
2023-01-04T22:08:31.148Z,100239.88
2023-01-04T22:12:49.941Z,100232.03
2023-01-04T22:17:06.140Z,100222.34
2023-01-04T22:21:26.727Z,100239.34
2023-01-04T22:25:42.976Z,100219.75
2023-01-04T22:29:59.134Z,100211.19
2023-01-04T22:34:17.140Z,100230.13
2023-01-04T22:38:38.343Z,100223.81
2023-01-04T22:42:54.553Z,100237.69
2023-01-04T22:47:10.825Z,100230.69
2023-01-04T22:51:27.784Z,100222.91
2023-01-04T22:56:17.487Z,100227.28
2023-01-04T23:00:20.355Z,100225.78
2023-01-04T23:04:36.509Z,100228.25
2023-01-04T23:09:01.215Z,100220.66
2023-01-04T23:13:17.466Z,100222.72
2023-01-04T23:17:33.701Z,100219.50
2023-01-04T23:21:49.896Z,100217.47
2023-01-04T23:26:07.860Z,100229.19
2023-01-04T23:30:24.062Z,100226.25
2023-01-04T23:34:40.232Z,100205.12
2023-01-04T23:38:59.122Z,100178.72
2023-01-04T23:43:15.328Z,100159.72
2023-01-04T23:47:31.452Z,100135.78
2023-01-04T23:51:47.695Z,100108.16
2023-01-04T23:56:13.511Z,100098.63
